createdAt,value
2018-04-08T00:00:06.680Z,5.93
2018-04-08T00:02:32.865Z,6.10
2018-04-08T00:04:59.083Z,6.37
2018-04-08T00:07:25.283Z,6.33
2018-04-08T00:09:51.500Z,5.87
2018-04-08T00:12:17.693Z,6.60
2018-04-08T00:14:44.675Z,6.40
2018-04-08T00:17:10.859Z,5.83
2018-04-08T00:19:37.073Z,6.57
2018-04-08T00:22:03.269Z,7.07
2018-04-08T00:24:29.480Z,6.27
2018-04-08T00:26:55.668Z,6.63
2018-04-08T00:29:21.883Z,6.70
2018-04-08T00:31:48.084Z,6.73
2018-04-08T00:34:14.301Z,5.97
2018-04-08T00:36:40.488Z,6.30
2018-04-08T00:39:07.006Z,6.87
2018-04-08T00:41:33.200Z,5.93
2018-04-08T00:43:59.388Z,6.30
2018-04-08T00:46:26.344Z,6.30
2018-04-08T00:48:53.368Z,6.50
2018-04-08T00:51:19.581Z,6.50
2018-04-08T00:53:45.839Z,7.10
2018-04-08T00:56:12.053Z,6.27
2018-04-08T00:58:38.284Z,5.80
2018-04-08T01:01:04.509Z,6.77
2018-04-08T01:03:31.139Z,6.57
2018-04-08T01:05:57.982Z,6.27
2018-04-08T01:08:24.211Z,5.97
2018-04-08T01:10:50.645Z,7.00
2018-04-08T01:13:17.662Z,6.50
2018-04-08T01:15:43.933Z,6.17
2018-04-08T01:18:10.185Z,7.00
2018-04-08T01:20:37.174Z,6.30
2018-04-08T01:23:03.373Z,6.20
2018-04-08T01:25:30.320Z,6.60
2018-04-08T01:27:57.281Z,5.80
2018-04-08T01:30:23.514Z,6.47
2018-04-08T01:32:49.713Z,7.17
2018-04-08T01:35:16.689Z,7.50
2018-04-08T01:37:42.885Z,7.33
2018-04-08T01:40:09.846Z,8.93
2018-04-08T01:42:36.776Z,7.43
2018-04-08T01:45:03.744Z,8.10
2018-04-08T01:47:29.948Z,7.30
2018-04-08T01:49:56.905Z,7.43
2018-04-08T01:52:23.837Z,7.40
2018-04-08T01:54:50.792Z,6.80
2018-04-08T01:57:17.984Z,6.77
2018-04-08T01:59:44.196Z,7.47
2018-04-08T02:02:10.384Z,6.40
2018-04-08T02:04:36.641Z,7.20
2018-04-08T02:07:03.980Z,7.70
2018-04-08T02:09:30.943Z,6.30
2018-04-08T02:11:57.880Z,7.80
2018-04-08T02:14:24.861Z,6.43
2018-04-08T02:16:51.052Z,6.80
2018-04-08T02:19:18.008Z,6.97
2018-04-08T02:21:44.944Z,6.87
2018-04-08T02:24:11.896Z,6.87
2018-04-08T02:26:38.821Z,6.70
2018-04-08T02:29:05.071Z,7.30
2018-04-08T02:31:32.033Z,8.10
2018-04-08T02:33:58.228Z,6.93
2018-04-08T02:36:24.436Z,7.40
2018-04-08T02:38:50.662Z,6.83
2018-04-08T02:41:17.641Z,7.57
2018-04-08T02:43:44.579Z,6.80
2018-04-08T02:46:10.823Z,7.60
2018-04-08T02:48:37.764Z,7.27
2018-04-08T02:51:04.732Z,8.00
2018-04-08T02:53:30.947Z,8.83
2018-04-08T02:55:57.897Z,8.33
2018-04-08T02:58:24.841Z,7.57
2018-04-08T03:00:51.809Z,7.97
2018-04-08T03:03:18.002Z,8.53
2018-04-08T03:05:44.960Z,8.60
2018-04-08T03:08:11.892Z,7.90
2018-04-08T03:10:38.847Z,8.70
2018-04-08T03:13:05.788Z,7.83
2018-04-08T03:15:32.777Z,7.90
2018-04-08T03:17:58.968Z,7.60
2018-04-08T03:20:25.920Z,7.90
2018-04-08T03:22:59.886Z,8.60
2018-04-08T03:25:26.104Z,7.80
2018-04-08T03:27:52.301Z,8.17
2018-04-08T03:30:18.517Z,7.60
2018-04-08T03:32:45.456Z,8.60
2018-04-08T03:35:12.398Z,7.60
2018-04-08T03:37:39.352Z,9.10
2018-04-08T03:40:06.292Z,8.40
2018-04-08T03:42:33.256Z,8.30
2018-04-08T03:44:59.452Z,8.27
2018-04-08T03:47:25.671Z,8.63
2018-04-08T03:49:51.860Z,8.47
2018-04-08T03:52:18.091Z,8.57
2018-04-08T03:54:44.303Z,8.50
2018-04-08T03:57:11.020Z,8.17
2018-04-08T03:59:37.967Z,8.87
2018-04-08T04:02:04.941Z,9.03
2018-04-08T04:04:31.123Z,8.73
2018-04-08T04:06:57.356Z,7.97
2018-04-08T04:09:23.560Z,9.10
2018-04-08T04:11:49.804Z,8.40
2018-04-08T04:14:16.036Z,8.60
2018-04-08T04:16:42.268Z,11.10
2018-04-08T04:22:25.709Z,8.70
2018-04-08T04:25:04.634Z,9.70
2018-04-08T04:27:30.849Z,9.00
2018-04-08T04:29:57.046Z,9.10
2018-04-08T04:32:23.284Z,9.60
2018-04-08T04:34:49.493Z,9.80
2018-04-08T04:37:16.467Z,9.50
2018-04-08T04:39:42.652Z,8.90
2018-04-08T04:42:08.875Z,9.40
2018-04-08T04:44:35.071Z,9.30
2018-04-08T04:47:01.287Z,9.50
2018-04-08T04:49:27.473Z,8.47
2018-04-08T04:51:54.428Z,9.80
2018-04-08T04:54:21.360Z,9.63
2018-04-08T04:56:47.867Z,10.30
2018-04-08T04:59:14.056Z,8.30
2018-04-08T05:01:40.268Z,9.30
2018-04-08T05:04:07.216Z,10.90
2018-04-08T05:06:33.409Z,8.80
2018-04-08T05:08:59.635Z,9.70
2018-04-08T05:11:25.823Z,9.60
2018-04-08T05:13:52.097Z,9.60
2018-04-08T05:16:18.304Z,8.83
2018-04-08T05:18:44.511Z,9.00
2018-04-08T05:21:10.723Z,9.60
2018-04-08T05:23:36.941Z,10.50
2018-04-08T05:26:03.877Z,9.50
2018-04-08T05:28:30.833Z,8.77
2018-04-08T05:30:57.033Z,10.47
2018-04-08T05:33:23.275Z,9.03
2018-04-08T05:35:49.470Z,9.60
2018-04-08T05:38:15.705Z,10.30
2018-04-08T05:40:41.900Z,10.47
2018-04-08T05:43:08.124Z,9.80
2018-04-08T05:45:34.320Z,9.80
2018-04-08T05:48:00.532Z,9.40
2018-04-08T05:50:27.196Z,8.37
2018-04-08T05:52:54.173Z,9.00
2018-04-08T05:55:20.360Z,8.20
2018-04-08T05:57:46.601Z,9.20
2018-04-08T06:00:13.528Z,9.53
2018-04-08T06:02:39.748Z,9.60
2018-04-08T06:05:05.944Z,9.03
2018-04-08T06:07:32.156Z,9.30
2018-04-08T06:09:58.353Z,8.80
2018-04-08T06:12:24.573Z,9.97
2018-04-08T06:14:51.224Z,10.07
2018-04-08T06:17:17.634Z,9.53
2018-04-08T06:19:44.296Z,9.20
2018-04-08T06:22:10.489Z,9.50
2018-04-08T06:24:36.724Z,9.23
2018-04-08T06:27:02.913Z,9.17
2018-04-08T06:29:29.153Z,8.53
2018-04-08T06:31:55.408Z,8.40
2018-04-08T06:34:21.744Z,9.10
2018-04-08T06:36:47.952Z,8.77
2018-04-08T06:39:14.188Z,8.70
2018-04-08T06:41:40.393Z,7.60
2018-04-08T06:44:06.628Z,9.27
2018-04-08T06:46:32.816Z,9.50
2018-04-08T06:48:59.776Z,9.37
2018-04-08T06:51:26.722Z,9.10
2018-04-08T06:53:53.676Z,8.93
2018-04-08T06:56:20.605Z,9.10
2018-04-08T06:58:47.561Z,9.17
2018-04-08T07:01:14.487Z,10.07
2018-04-08T07:03:40.752Z,8.07
2018-04-08T07:06:06.935Z,9.27
2018-04-08T07:08:33.149Z,9.87
2018-04-08T07:10:59.343Z,9.60
2018-04-08T07:13:25.552Z,9.47
2018-04-08T07:15:52.508Z,9.67
2018-04-08T07:18:18.753Z,9.13
2018-04-08T07:20:44.977Z,10.07
2018-04-08T07:23:11.197Z,9.20
2018-04-08T07:25:37.417Z,10.20
2018-04-08T07:28:04.373Z,10.00
2018-04-08T07:30:30.825Z,8.90
2018-04-08T07:32:57.045Z,9.97
2018-04-08T07:35:23.256Z,9.67
2018-04-08T07:37:49.480Z,10.60
2018-04-08T07:40:16.412Z,10.17
2018-04-08T07:42:43.368Z,9.83
2018-04-08T07:45:10.301Z,9.93
2018-04-08T07:47:36.511Z,9.80
2018-04-08T07:50:02.719Z,10.10
2018-04-08T07:52:28.932Z,10.10
2018-04-08T07:54:55.119Z,9.10
2018-04-08T07:57:22.080Z,9.90
2018-04-08T07:59:48.281Z,8.80
2018-04-08T08:02:14.497Z,8.50
2018-04-08T08:04:40.697Z,9.10
2018-04-08T08:07:06.912Z,9.57
2018-04-08T08:09:33.109Z,9.13
2018-04-08T08:12:00.224Z,9.30
2018-04-08T08:14:26.584Z,9.70
2018-04-08T08:16:52.768Z,9.50
2018-04-08T08:19:18.984Z,9.63
2018-04-08T08:21:45.168Z,9.80
2018-04-08T08:24:11.387Z,9.57
2018-04-08T08:26:37.579Z,9.63
2018-04-08T08:29:03.788Z,9.87
2018-04-08T08:31:30.000Z,9.07
2018-04-08T08:33:56.960Z,8.80
2018-04-08T08:36:23.153Z,9.53
2018-04-08T08:38:49.359Z,8.30
2018-04-08T08:41:15.548Z,9.50
2018-04-08T08:43:41.796Z,8.77
2018-04-08T08:46:08.035Z,8.13
2018-04-08T08:48:34.256Z,8.70
2018-04-08T08:51:00.437Z,8.37
2018-04-08T08:53:27.392Z,8.80
2018-04-08T08:55:54.324Z,9.03
2018-04-08T08:58:21.449Z,8.23
2018-04-08T09:00:47.645Z,8.90
2018-04-08T09:03:13.832Z,9.10
2018-04-08T09:05:40.048Z,8.17
2018-04-08T09:08:06.268Z,9.23
2018-04-08T09:10:32.484Z,8.47
2018-04-08T09:12:58.678Z,8.30
2018-04-08T09:15:24.950Z,8.33
2018-04-08T09:17:51.156Z,8.60
2018-04-08T09:20:18.253Z,8.13
2018-04-08T09:22:48.081Z,9.17
2018-04-08T09:25:15.062Z,8.17
2018-04-08T09:27:41.281Z,8.50
2018-04-08T09:30:07.492Z,7.97
2018-04-08T09:32:34.424Z,7.97
2018-04-08T09:35:01.382Z,8.70
2018-04-08T09:37:28.361Z,8.00
2018-04-08T09:39:54.552Z,8.33
2018-04-08T09:42:21.528Z,7.93
2018-04-08T09:44:47.715Z,9.33
2018-04-08T09:47:13.923Z,8.20
2018-04-08T09:49:40.107Z,8.40
2018-04-08T09:52:06.333Z,9.80
2018-04-08T09:54:32.836Z,9.90
2018-04-08T09:56:59.072Z,10.83
2018-04-08T09:59:26.020Z,9.27
2018-04-08T10:04:51.911Z,11.97
2018-04-08T10:07:18.129Z,13.67
2018-04-08T10:09:44.486Z,12.30
2018-04-08T10:12:10.688Z,13.50
2018-04-08T10:14:36.902Z,12.83
2018-04-08T10:17:03.143Z,12.60
2018-04-08T10:19:29.352Z,12.93
2018-04-08T10:21:55.584Z,11.60
2018-04-08T10:24:21.819Z,10.57
2018-04-08T10:26:48.004Z,11.07
2018-04-08T10:29:14.972Z,12.07
2018-04-08T10:31:41.925Z,12.50
2018-04-08T10:34:08.188Z,11.73
2018-04-08T10:36:34.404Z,13.40
2018-04-08T10:39:00.593Z,13.13
2018-04-08T10:41:26.807Z,13.80
2018-04-08T10:43:52.991Z,13.00
2018-04-08T10:46:19.264Z,13.70
2018-04-08T10:48:45.447Z,12.53
2018-04-08T10:51:11.672Z,13.47
2018-04-08T10:53:37.852Z,12.40
2018-04-08T10:56:04.064Z,13.60
2018-04-08T10:58:30.316Z,11.77
2018-04-08T11:00:56.532Z,13.10
2018-04-08T11:03:22.724Z,12.70
2018-04-08T11:05:48.968Z,12.93
2018-04-08T11:08:15.226Z,12.83
2018-04-08T11:10:41.448Z,12.93
2018-04-08T11:13:08.417Z,14.60
2018-04-08T11:15:34.693Z,13.53
2018-04-08T11:18:00.880Z,12.40
2018-04-08T11:20:27.832Z,11.63
2018-04-08T11:22:54.764Z,12.57
2018-04-08T11:25:21.744Z,12.97
2018-04-08T11:27:47.997Z,12.60
2018-04-08T11:30:14.213Z,12.27
2018-04-08T11:32:40.405Z,12.27
2018-04-08T11:35:07.360Z,12.40
2018-04-08T11:37:34.293Z,12.33
2018-04-08T11:40:01.252Z,12.80
2018-04-08T11:42:28.188Z,13.57
2018-04-08T11:44:55.145Z,12.17
2018-04-08T11:47:22.138Z,13.50
2018-04-08T11:49:48.352Z,13.40
2018-04-08T11:52:14.565Z,13.67
2018-04-08T11:54:40.769Z,13.10
2018-04-08T11:57:07.725Z,14.27
2018-04-08T11:59:34.737Z,15.07
2018-04-08T12:02:00.992Z,13.33
2018-04-08T12:04:27.262Z,13.93
2018-04-08T12:07:00.439Z,15.20
2018-04-08T12:09:26.648Z,13.00
2018-04-08T12:11:53.585Z,14.70
2018-04-08T12:14:20.545Z,12.43
2018-04-08T12:16:47.496Z,12.63
2018-04-08T12:19:13.765Z,11.33
2018-04-08T12:21:39.980Z,11.73
2018-04-08T12:24:06.224Z,10.77
2018-04-08T12:26:32.428Z,11.37
2018-04-08T12:28:58.771Z,12.90
2018-04-08T12:31:24.993Z,12.50
2018-04-08T12:33:51.200Z,11.80
2018-04-08T12:36:18.177Z,12.07
2018-04-08T12:38:44.364Z,12.40
2018-04-08T12:41:11.327Z,10.37
2018-04-08T12:43:37.520Z,12.43
2018-04-08T12:46:03.733Z,12.27
2018-04-08T12:48:29.921Z,11.60
2018-04-08T12:50:56.162Z,12.90
2018-04-08T12:53:22.372Z,13.70
2018-04-08T12:55:48.624Z,14.33
2018-04-08T12:58:14.821Z,13.47
2018-04-08T13:00:41.777Z,13.30
2018-04-08T13:03:07.994Z,14.40
2018-04-08T13:05:34.954Z,12.57
2018-04-08T13:08:01.144Z,13.97
2018-04-08T13:10:27.432Z,12.50
2018-04-08T13:12:53.620Z,14.87
2018-04-08T13:15:20.632Z,12.13
2018-04-08T13:17:46.912Z,12.37
2018-04-08T13:20:13.125Z,14.43
2018-04-08T13:22:40.076Z,12.97
2018-04-08T13:25:07.385Z,12.37
2018-04-08T13:27:33.567Z,12.97
2018-04-08T13:29:59.753Z,12.57
2018-04-08T13:32:26.744Z,12.60
2018-04-08T13:34:52.942Z,11.43
2018-04-08T13:37:19.172Z,13.90
2018-04-08T13:39:45.369Z,11.90
2018-04-08T13:42:11.605Z,13.43
2018-04-08T13:44:37.800Z,10.73
2018-04-08T13:47:04.018Z,10.27
2018-04-08T13:49:30.212Z,11.60
2018-04-08T13:51:56.441Z,11.23
2018-04-08T13:54:22.632Z,10.70
2018-04-08T13:56:48.849Z,10.90
2018-04-08T13:59:15.032Z,10.60
2018-04-08T14:01:42.027Z,10.70
2018-04-08T14:04:08.212Z,9.77
2018-04-08T14:06:35.188Z,12.80
2018-04-08T14:09:01.411Z,12.67
2018-04-08T14:11:27.640Z,12.30
2018-04-08T14:13:53.837Z,13.10
2018-04-08T14:16:20.081Z,12.60
2018-04-08T14:18:47.008Z,12.37
2018-04-08T14:21:13.217Z,13.33
2018-04-08T14:23:39.414Z,14.77
2018-04-08T14:26:05.629Z,15.17
2018-04-08T14:28:31.812Z,16.13
2018-04-08T14:30:58.031Z,16.93
2018-04-08T14:33:24.236Z,13.57
2018-04-08T14:35:50.468Z,16.90
2018-04-08T14:38:16.680Z,16.30
2018-04-08T14:40:42.907Z,15.60
2018-04-08T14:43:09.108Z,66.37
2018-04-08T14:45:36.079Z,15.60
2018-04-08T14:48:02.284Z,16.07
2018-04-08T14:50:29.232Z,15.90
2018-04-08T14:52:56.192Z,26.43
2018-04-08T14:55:22.403Z,16.60
2018-04-08T14:57:49.348Z,15.67
2018-04-08T15:00:16.320Z,15.43
2018-04-08T15:02:42.529Z,19.37
2018-04-08T15:05:09.511Z,14.20
2018-04-08T15:07:35.721Z,13.50
2018-04-08T15:10:02.007Z,14.83
2018-04-08T15:12:28.194Z,15.40
2018-04-08T15:14:54.424Z,14.83
2018-04-08T15:17:20.656Z,14.27
2018-04-08T15:19:46.853Z,15.07
2018-04-08T15:22:13.833Z,14.10
2018-04-08T15:24:40.080Z,13.23
2018-04-08T15:27:06.265Z,12.90
2018-04-08T15:29:32.980Z,13.53
2018-04-08T15:31:59.163Z,11.97
2018-04-08T15:34:25.384Z,12.60
2018-04-08T15:36:51.585Z,13.20
2018-04-08T15:39:18.545Z,12.57
2018-04-08T15:41:45.156Z,13.87
2018-04-08T15:44:12.138Z,12.97
2018-04-08T15:46:38.337Z,12.53
2018-04-08T15:49:05.317Z,11.10
2018-04-08T15:51:31.572Z,12.53
2018-04-08T15:53:57.767Z,12.20
2018-04-08T15:56:23.961Z,13.57
2018-04-08T15:58:50.181Z,13.00
2018-04-08T16:01:16.379Z,14.63
2018-04-08T16:03:42.634Z,13.80
2018-04-08T16:06:08.833Z,13.97
2018-04-08T16:08:35.020Z,15.07
2018-04-08T16:11:02.308Z,14.57
2018-04-08T16:13:28.520Z,13.20
2018-04-08T16:15:54.765Z,14.17
2018-04-08T16:18:20.952Z,14.27
2018-04-08T16:20:47.924Z,13.30
2018-04-08T16:23:14.116Z,13.57
2018-04-08T16:25:41.816Z,14.50
2018-04-08T16:28:07.999Z,13.33
2018-04-08T16:30:34.264Z,13.47
2018-04-08T16:33:01.193Z,13.63
2018-04-08T16:35:28.172Z,13.40
2018-04-08T16:37:54.354Z,15.60
2018-04-08T16:40:20.577Z,16.30
2018-04-08T16:42:46.759Z,17.00
2018-04-08T16:45:12.968Z,17.93
2018-04-08T16:47:39.896Z,18.23
2018-04-08T16:50:06.895Z,17.40
2018-04-08T16:52:33.068Z,20.93
2018-04-08T16:54:59.673Z,18.77
2018-04-08T16:57:25.867Z,18.53
2018-04-08T16:59:52.082Z,18.40
2018-04-08T17:02:19.055Z,21.13
2018-04-08T17:04:45.241Z,20.07
2018-04-08T17:07:12.204Z,21.53
2018-04-08T17:09:39.137Z,22.17
2018-04-08T17:12:06.126Z,23.30
2018-04-08T17:14:32.380Z,21.50
2018-04-08T17:16:58.603Z,21.27
2018-04-08T17:19:24.816Z,23.10
2018-04-08T17:21:51.053Z,23.33
2018-04-08T17:24:17.256Z,23.80
2018-04-08T17:26:43.492Z,23.10
2018-04-08T17:29:09.780Z,23.57
2018-04-08T17:31:35.989Z,24.00
2018-04-08T17:34:02.200Z,21.97
2018-04-08T17:36:28.412Z,23.47
2018-04-08T17:38:54.596Z,22.40
2018-04-08T17:41:20.838Z,21.30
2018-04-08T17:43:47.784Z,23.33
2018-04-08T17:46:14.740Z,22.27
2018-04-08T17:48:40.925Z,22.90
2018-04-08T17:51:07.196Z,21.87
2018-04-08T17:53:33.389Z,22.43
2018-04-08T17:55:59.912Z,22.00
2018-04-08T17:58:26.101Z,22.90
2018-04-08T18:00:52.295Z,29.20
2018-04-08T18:03:19.264Z,31.83
2018-04-08T18:05:45.468Z,22.63
2018-04-08T18:08:12.432Z,24.00
2018-04-08T18:10:39.364Z,22.67
2018-04-08T18:13:06.316Z,23.33
2018-04-08T18:15:33.287Z,21.70
2018-04-08T18:17:59.499Z,23.23
2018-04-08T18:20:26.432Z,22.37
2018-04-08T18:22:53.384Z,23.33
2018-04-08T18:25:20.314Z,23.97
2018-04-08T18:27:46.526Z,23.47
2018-04-08T18:30:12.731Z,23.07
2018-04-08T18:32:38.952Z,22.70
2018-04-08T18:35:05.141Z,19.87
2018-04-08T18:37:32.109Z,24.30
2018-04-08T18:39:58.316Z,23.97
2018-04-08T18:42:25.273Z,23.70
2018-04-08T18:44:52.209Z,22.97
2018-04-08T18:47:19.166Z,24.23
2018-04-08T18:49:46.105Z,24.20
2018-04-08T18:52:13.060Z,24.43
2018-04-08T18:54:39.992Z,23.53
2018-04-08T18:57:07.104Z,21.30
2018-04-08T18:59:33.292Z,24.60
2018-04-08T19:01:59.513Z,23.93
2018-04-08T19:04:25.759Z,23.80
2018-04-08T19:06:52.136Z,23.97
2018-04-08T19:09:18.331Z,24.13
2018-04-08T19:11:44.515Z,24.17
2018-04-08T19:14:11.504Z,24.33
2018-04-08T19:16:37.754Z,23.60
2018-04-08T19:19:03.963Z,21.93
2018-04-08T19:21:30.395Z,22.33
2018-04-08T19:23:56.613Z,21.00
2018-04-08T19:26:22.841Z,21.47
2018-04-08T19:28:49.028Z,22.47
2018-04-08T19:31:15.992Z,22.10
2018-04-08T19:33:42.921Z,22.93
2018-04-08T19:36:09.140Z,23.47
2018-04-08T19:38:36.074Z,24.13
2018-04-08T19:41:02.288Z,23.10
2018-04-08T19:43:28.485Z,23.27
2018-04-08T19:45:54.680Z,26.00
2018-04-08T19:48:20.889Z,25.40
2018-04-08T19:50:47.109Z,24.30
2018-04-08T19:53:13.308Z,23.27
2018-04-08T19:55:39.497Z,23.67
2018-04-08T19:58:05.720Z,25.17
2018-04-08T20:00:31.956Z,23.33
2018-04-08T20:02:58.892Z,23.63
2018-04-08T20:05:25.115Z,24.27
2018-04-08T20:07:51.304Z,24.40
2018-04-08T20:10:17.484Z,23.87
2018-04-08T20:12:43.700Z,24.40
2018-04-08T20:15:09.916Z,25.80
2018-04-08T20:17:36.124Z,24.17
2018-04-08T20:20:02.357Z,23.70
2018-04-08T20:22:28.588Z,22.40
2018-04-08T20:24:54.781Z,24.10
2018-04-08T20:27:21.740Z,21.50
2018-04-08T20:29:47.929Z,22.37
2018-04-08T20:32:14.138Z,22.17
2018-04-08T20:34:40.337Z,22.30
2018-04-08T20:37:06.548Z,23.50
2018-04-08T20:39:32.765Z,22.70
2018-04-08T20:41:59.728Z,22.50
2018-04-08T20:44:25.916Z,21.77
2018-04-08T20:46:52.133Z,20.60
2018-04-08T20:49:18.371Z,23.10
2018-04-08T20:51:44.568Z,23.97
2018-04-08T20:54:10.752Z,21.93
2018-04-08T20:56:37.772Z,22.73
2018-04-08T20:59:03.965Z,21.93
2018-04-08T21:01:30.176Z,22.40
2018-04-08T21:03:56.383Z,22.07
2018-04-08T21:06:23.317Z,22.87
2018-04-08T21:08:49.523Z,21.07
2018-04-08T21:11:15.736Z,21.60
2018-04-08T21:13:41.931Z,23.33
2018-04-08T21:16:15.155Z,21.20
2018-04-08T21:18:41.352Z,22.57
2018-04-08T21:21:07.569Z,24.30
2018-04-08T21:23:34.528Z,22.40
2018-04-08T21:26:00.737Z,24.60
2018-04-08T21:28:27.692Z,23.20
2018-04-08T21:30:54.655Z,23.57
2018-04-08T21:33:20.845Z,24.40
2018-04-08T21:35:47.059Z,24.13
2018-04-08T21:38:13.253Z,25.93
2018-04-08T21:40:39.477Z,24.43
2018-04-08T21:43:05.732Z,23.70
2018-04-08T21:45:31.947Z,24.00
2018-04-08T21:47:58.135Z,23.87
2018-04-08T21:50:25.105Z,23.40
2018-04-08T21:52:51.385Z,23.53
2018-04-08T21:55:17.592Z,23.77
2018-04-08T21:57:43.805Z,23.63
2018-04-08T22:00:10.024Z,22.00
2018-04-08T22:02:36.249Z,24.70
2018-04-08T22:05:02.437Z,23.63
2018-04-08T22:07:28.692Z,24.33
2018-04-08T22:09:55.612Z,23.77
2018-04-08T22:12:21.849Z,22.60
2018-04-08T22:14:48.807Z,26.27
2018-04-08T22:17:15.916Z,26.17
2018-04-08T22:19:42.108Z,22.10
2018-04-08T22:22:08.657Z,23.43
2018-04-08T22:24:34.872Z,23.93
2018-04-08T22:27:01.092Z,25.10
2018-04-08T22:29:27.344Z,24.20
2018-04-08T22:31:53.565Z,24.90
2018-04-08T22:34:19.756Z,25.13
2018-04-08T22:36:46.712Z,25.30
2018-04-08T22:39:13.640Z,25.33
2018-04-08T22:41:39.892Z,24.33
2018-04-08T22:44:06.895Z,24.93
2018-04-08T22:46:33.109Z,25.17
2018-04-08T22:48:59.320Z,23.97
2018-04-08T22:51:25.529Z,23.23
2018-04-08T22:53:52.484Z,23.83
2018-04-08T22:56:18.688Z,23.50
2018-04-08T22:58:45.656Z,24.10
2018-04-08T23:01:11.852Z,24.00
2018-04-08T23:03:38.068Z,23.60
2018-04-08T23:06:04.321Z,23.10
2018-04-08T23:08:31.272Z,21.90
2018-04-08T23:10:58.244Z,23.03
2018-04-08T23:13:24.461Z,21.60
2018-04-08T23:15:50.677Z,22.03
2018-04-08T23:18:17.696Z,23.37
2018-04-08T23:20:45.368Z,22.80
2018-04-08T23:23:11.580Z,21.33
2018-04-08T23:25:37.807Z,22.07
2018-04-08T23:28:04.000Z,21.60
2018-04-08T23:30:30.215Z,21.83
2018-04-08T23:32:56.448Z,24.10
2018-04-08T23:35:22.665Z,22.47
2018-04-08T23:37:48.896Z,21.80
2018-04-08T23:40:15.824Z,23.30
2018-04-08T23:42:42.012Z,22.43
2018-04-08T23:45:08.232Z,20.83
2018-04-08T23:47:34.436Z,20.97
2018-04-08T23:50:00.639Z,22.90
2018-04-08T23:52:27.616Z,25.03
2018-04-08T23:54:53.804Z,23.03
2018-04-08T23:57:20.013Z,22.50
2018-04-08T23:59:46.268Z,22.37
